sensor_id;sensor_type;location;lat;lon;timestamp;P1;durP1;ratioP1;P2;durP2;ratioP2
13685;SDS011;6915;48.296;8.874;2022-07-17T00:01:57;4.50;;;2.53;;
13685;SDS011;6915;48.296;8.874;2022-07-17T00:04:25;3.23;;;2.57;;
13685;SDS011;6915;48.296;8.874;2022-07-17T00:06:52;2.57;;;2.37;;
13685;SDS011;6915;48.296;8.874;2022-07-17T00:09:19;3.00;;;2.60;;
13685;SDS011;6915;48.296;8.874;2022-07-17T00:11:46;3.63;;;2.70;;
13685;SDS011;6915;48.296;8.874;2022-07-17T00:14:13;4.17;;;2.90;;
13685;SDS011;6915;48.296;8.874;2022-07-17T00:16:40;2.80;;;2.60;;
13685;SDS011;6915;48.296;8.874;2022-07-17T00:19:07;3.83;;;2.37;;
13685;SDS011;6915;48.296;8.874;2022-07-17T00:21:35;3.17;;;2.73;;
13685;SDS011;6915;48.296;8.874;2022-07-17T00:24:02;3.47;;;2.97;;
13685;SDS011;6915;48.296;8.874;2022-07-17T00:26:31;3.03;;;2.73;;
13685;SDS011;6915;48.296;8.874;2022-07-17T00:28:59;3.43;;;2.73;;
13685;SDS011;6915;48.296;8.874;2022-07-17T00:31:26;3.40;;;2.50;;
13685;SDS011;6915;48.296;8.874;2022-07-17T00:33:52;2.63;;;2.40;;
13685;SDS011;6915;48.296;8.874;2022-07-17T00:36:19;2.63;;;2.43;;
13685;SDS011;6915;48.296;8.874;2022-07-17T00:38:48;2.50;;;2.30;;
13685;SDS011;6915;48.296;8.874;2022-07-17T00:41:14;5.33;;;2.57;;
13685;SDS011;6915;48.296;8.874;2022-07-17T00:43:41;4.47;;;3.03;;
13685;SDS011;6915;48.296;8.874;2022-07-17T00:46:10;3.10;;;2.70;;
13685;SDS011;6915;48.296;8.874;2022-07-17T00:48:37;2.60;;;2.40;;
13685;SDS011;6915;48.296;8.874;2022-07-17T00:51:04;3.57;;;2.70;;
13685;SDS011;6915;48.296;8.874;2022-07-17T00:53:32;2.90;;;2.70;;
13685;SDS011;6915;48.296;8.874;2022-07-17T00:56:03;3.20;;;2.90;;
13685;SDS011;6915;48.296;8.874;2022-07-17T00:58:34;2.80;;;2.50;;
13685;SDS011;6915;48.296;8.874;2022-07-17T01:01:03;4.10;;;2.77;;
13685;SDS011;6915;48.296;8.874;2022-07-17T01:03:31;3.13;;;2.63;;
13685;SDS011;6915;48.296;8.874;2022-07-17T01:05:58;2.83;;;2.60;;
13685;SDS011;6915;48.296;8.874;2022-07-17T01:08:26;2.60;;;2.40;;
13685;SDS011;6915;48.296;8.874;2022-07-17T01:10:53;3.77;;;2.77;;
13685;SDS011;6915;48.296;8.874;2022-07-17T01:13:21;2.70;;;2.50;;
13685;SDS011;6915;48.296;8.874;2022-07-17T01:15:48;3.30;;;2.60;;
13685;SDS011;6915;48.296;8.874;2022-07-17T01:18:15;3.00;;;2.70;;
13685;SDS011;6915;48.296;8.874;2022-07-17T01:20:43;3.10;;;2.80;;
13685;SDS011;6915;48.296;8.874;2022-07-17T01:23:12;3.07;;;2.77;;
13685;SDS011;6915;48.296;8.874;2022-07-17T01:25:40;3.47;;;2.70;;
13685;SDS011;6915;48.296;8.874;2022-07-17T01:28:07;2.70;;;2.50;;
13685;SDS011;6915;48.296;8.874;2022-07-17T01:30:34;3.07;;;2.77;;
13685;SDS011;6915;48.296;8.874;2022-07-17T01:33:01;3.93;;;2.80;;
13685;SDS011;6915;48.296;8.874;2022-07-17T01:35:29;3.57;;;2.70;;
13685;SDS011;6915;48.296;8.874;2022-07-17T01:37:56;2.50;;;2.30;;
13685;SDS011;6915;48.296;8.874;2022-07-17T01:40:24;2.97;;;2.77;;
13685;SDS011;6915;48.296;8.874;2022-07-17T01:42:51;5.63;;;2.83;;
13685;SDS011;6915;48.296;8.874;2022-07-17T01:45:18;4.47;;;2.77;;
13685;SDS011;6915;48.296;8.874;2022-07-17T01:47:45;3.07;;;2.83;;
13685;SDS011;6915;48.296;8.874;2022-07-17T01:50:13;3.03;;;2.53;;
13685;SDS011;6915;48.296;8.874;2022-07-17T01:52:40;3.30;;;3.00;;
13685;SDS011;6915;48.296;8.874;2022-07-17T01:55:09;3.40;;;3.10;;
13685;SDS011;6915;48.296;8.874;2022-07-17T01:57:38;4.37;;;2.90;;
13685;SDS011;6915;48.296;8.874;2022-07-17T02:00:07;3.23;;;2.97;;
13685;SDS011;6915;48.296;8.874;2022-07-17T02:02:36;4.10;;;2.83;;
13685;SDS011;6915;48.296;8.874;2022-07-17T02:05:03;5.27;;;2.80;;
13685;SDS011;6915;48.296;8.874;2022-07-17T02:07:30;2.90;;;2.60;;
13685;SDS011;6915;48.296;8.874;2022-07-17T02:09:58;3.10;;;2.80;;
13685;SDS011;6915;48.296;8.874;2022-07-17T02:12:25;4.23;;;3.03;;
13685;SDS011;6915;48.296;8.874;2022-07-17T02:14:53;2.90;;;2.70;;
13685;SDS011;6915;48.296;8.874;2022-07-17T02:17:20;3.03;;;2.73;;
13685;SDS011;6915;48.296;8.874;2022-07-17T02:19:47;3.30;;;2.97;;
13685;SDS011;6915;48.296;8.874;2022-07-17T02:22:14;2.70;;;2.50;;
13685;SDS011;6915;48.296;8.874;2022-07-17T02:24:40;5.23;;;2.80;;
13685;SDS011;6915;48.296;8.874;2022-07-17T02:27:07;4.13;;;2.87;;
13685;SDS011;6915;48.296;8.874;2022-07-17T02:29:34;6.33;;;2.70;;
13685;SDS011;6915;48.296;8.874;2022-07-17T02:32:03;3.10;;;2.80;;
13685;SDS011;6915;48.296;8.874;2022-07-17T02:34:30;3.53;;;2.87;;
13685;SDS011;6915;48.296;8.874;2022-07-17T02:36:57;3.73;;;2.70;;
13685;SDS011;6915;48.296;8.874;2022-07-17T02:39:24;2.70;;;2.50;;
13685;SDS011;6915;48.296;8.874;2022-07-17T02:41:51;2.73;;;2.50;;
13685;SDS011;6915;48.296;8.874;2022-07-17T02:44:18;3.17;;;2.97;;
13685;SDS011;6915;48.296;8.874;2022-07-17T02:46:45;3.00;;;2.80;;
13685;SDS011;6915;48.296;8.874;2022-07-17T02:49:13;3.00;;;2.80;;
13685;SDS011;6915;48.296;8.874;2022-07-17T02:51:40;3.20;;;2.90;;
13685;SDS011;6915;48.296;8.874;2022-07-17T02:54:07;4.60;;;2.70;;
13685;SDS011;6915;48.296;8.874;2022-07-17T02:56:34;2.93;;;2.67;;
13685;SDS011;6915;48.296;8.874;2022-07-17T02:59:01;2.53;;;2.33;;
13685;SDS011;6915;48.296;8.874;2022-07-17T03:01:28;2.67;;;2.47;;
13685;SDS011;6915;48.296;8.874;2022-07-17T03:03:54;2.83;;;2.50;;
13685;SDS011;6915;48.296;8.874;2022-07-17T03:06:23;5.07;;;2.83;;
13685;SDS011;6915;48.296;8.874;2022-07-17T03:08:50;2.83;;;2.63;;
13685;SDS011;6915;48.296;8.874;2022-07-17T03:11:17;2.73;;;2.53;;
13685;SDS011;6915;48.296;8.874;2022-07-17T03:13:43;3.00;;;2.50;;
13685;SDS011;6915;48.296;8.874;2022-07-17T03:16:10;3.37;;;2.83;;
13685;SDS011;6915;48.296;8.874;2022-07-17T03:18:37;3.50;;;2.70;;
13685;SDS011;6915;48.296;8.874;2022-07-17T03:21:04;3.37;;;2.50;;
13685;SDS011;6915;48.296;8.874;2022-07-17T03:23:32;3.27;;;2.67;;
13685;SDS011;6915;48.296;8.874;2022-07-17T03:25:59;3.27;;;2.97;;
13685;SDS011;6915;48.296;8.874;2022-07-17T03:28:26;3.00;;;2.70;;
13685;SDS011;6915;48.296;8.874;2022-07-17T03:30:53;3.10;;;2.83;;
13685;SDS011;6915;48.296;8.874;2022-07-17T03:33:20;3.10;;;2.80;;
13685;SDS011;6915;48.296;8.874;2022-07-17T03:35:47;2.73;;;2.53;;
13685;SDS011;6915;48.296;8.874;2022-07-17T03:38:14;3.30;;;3.00;;
13685;SDS011;6915;48.296;8.874;2022-07-17T03:40:42;3.40;;;3.10;;
13685;SDS011;6915;48.296;8.874;2022-07-17T03:43:09;3.67;;;3.10;;
13685;SDS011;6915;48.296;8.874;2022-07-17T03:45:37;4.50;;;2.87;;
13685;SDS011;6915;48.296;8.874;2022-07-17T03:48:04;3.00;;;2.80;;
13685;SDS011;6915;48.296;8.874;2022-07-17T03:50:32;3.10;;;2.83;;
13685;SDS011;6915;48.296;8.874;2022-07-17T03:52:58;3.27;;;2.93;;
13685;SDS011;6915;48.296;8.874;2022-07-17T03:55:25;3.17;;;2.87;;
13685;SDS011;6915;48.296;8.874;2022-07-17T03:57:54;3.57;;;3.27;;
13685;SDS011;6915;48.296;8.874;2022-07-17T04:00:21;3.40;;;3.10;;
13685;SDS011;6915;48.296;8.874;2022-07-17T04:02:49;3.27;;;2.90;;
13685;SDS011;6915;48.296;8.874;2022-07-17T04:05:15;3.43;;;3.20;;
13685;SDS011;6915;48.296;8.874;2022-07-17T04:07:42;3.10;;;2.70;;
13685;SDS011;6915;48.296;8.874;2022-07-17T04:10:10;3.47;;;3.10;;
13685;SDS011;6915;48.296;8.874;2022-07-17T04:12:38;3.80;;;2.60;;
13685;SDS011;6915;48.296;8.874;2022-07-17T04:15:07;3.17;;;2.70;;
13685;SDS011;6915;48.296;8.874;2022-07-17T04:17:35;2.70;;;2.50;;
13685;SDS011;6915;48.296;8.874;2022-07-17T04:20:02;3.10;;;2.23;;
13685;SDS011;6915;48.296;8.874;2022-07-17T04:22:30;2.60;;;2.40;;
13685;SDS011;6915;48.296;8.874;2022-07-17T04:24:57;3.63;;;2.30;;
13685;SDS011;6915;48.296;8.874;2022-07-17T04:27:24;2.70;;;2.30;;
13685;SDS011;6915;48.296;8.874;2022-07-17T04:29:51;3.40;;;2.30;;
13685;SDS011;6915;48.296;8.874;2022-07-17T04:32:19;3.63;;;2.60;;
13685;SDS011;6915;48.296;8.874;2022-07-17T04:34:46;2.20;;;1.93;;
13685;SDS011;6915;48.296;8.874;2022-07-17T04:37:12;2.73;;;2.27;;
13685;SDS011;6915;48.296;8.874;2022-07-17T04:39:39;2.27;;;2.00;;
13685;SDS011;6915;48.296;8.874;2022-07-17T04:42:06;3.77;;;2.30;;
13685;SDS011;6915;48.296;8.874;2022-07-17T04:44:33;2.67;;;2.25;;
13685;SDS011;6915;48.296;8.874;2022-07-17T04:47:01;2.30;;;2.20;;
13685;SDS011;6915;48.296;8.874;2022-07-17T04:49:29;2.88;;;2.15;;
13685;SDS011;6915;48.296;8.874;2022-07-17T04:51:56;4.57;;;2.20;;
13685;SDS011;6915;48.296;8.874;2022-07-17T04:54:23;3.22;;;2.50;;
13685;SDS011;6915;48.296;8.874;2022-07-17T04:56:50;2.40;;;2.20;;
13685;SDS011;6915;48.296;8.874;2022-07-17T04:59:17;3.05;;;2.30;;
13685;SDS011;6915;48.296;8.874;2022-07-17T05:01:44;2.58;;;2.35;;
13685;SDS011;6915;48.296;8.874;2022-07-17T05:04:11;2.28;;;2.17;;
13685;SDS011;6915;48.296;8.874;2022-07-17T05:06:40;2.63;;;2.40;;
13685;SDS011;6915;48.296;8.874;2022-07-17T05:09:06;2.80;;;2.60;;
13685;SDS011;6915;48.296;8.874;2022-07-17T05:11:33;4.32;;;2.60;;
13685;SDS011;6915;48.296;8.874;2022-07-17T05:14:01;3.20;;;2.42;;
13685;SDS011;6915;48.296;8.874;2022-07-17T05:16:28;2.72;;;2.50;;
13685;SDS011;6915;48.296;8.874;2022-07-17T05:18:55;2.65;;;2.45;;
13685;SDS011;6915;48.296;8.874;2022-07-17T05:21:22;3.40;;;2.40;;
13685;SDS011;6915;48.296;8.874;2022-07-17T05:23:51;2.58;;;2.38;;
13685;SDS011;6915;48.296;8.874;2022-07-17T05:26:18;2.80;;;2.30;;
13685;SDS011;6915;48.296;8.874;2022-07-17T05:28:44;3.25;;;2.30;;
13685;SDS011;6915;48.296;8.874;2022-07-17T05:31:11;2.30;;;2.20;;
13685;SDS011;6915;48.296;8.874;2022-07-17T05:33:38;4.63;;;2.58;;
13685;SDS011;6915;48.296;8.874;2022-07-17T05:36:05;2.60;;;2.40;;
13685;SDS011;6915;48.296;8.874;2022-07-17T05:38:32;2.50;;;2.10;;
13685;SDS011;6915;48.296;8.874;2022-07-17T05:41:01;2.80;;;2.50;;
13685;SDS011;6915;48.296;8.874;2022-07-17T05:43:28;3.00;;;2.28;;
13685;SDS011;6915;48.296;8.874;2022-07-17T05:45:55;2.97;;;2.65;;
13685;SDS011;6915;48.296;8.874;2022-07-17T05:48:23;3.08;;;2.45;;
13685;SDS011;6915;48.296;8.874;2022-07-17T05:50:50;2.40;;;2.20;;
13685;SDS011;6915;48.296;8.874;2022-07-17T05:53:17;4.13;;;2.83;;
13685;SDS011;6915;48.296;8.874;2022-07-17T05:55:44;2.97;;;2.50;;
13685;SDS011;6915;48.296;8.874;2022-07-17T05:58:13;3.65;;;2.28;;
13685;SDS011;6915;48.296;8.874;2022-07-17T06:00:40;2.80;;;2.55;;
13685;SDS011;6915;48.296;8.874;2022-07-17T06:03:07;3.63;;;2.67;;
13685;SDS011;6915;48.296;8.874;2022-07-17T06:05:34;3.33;;;2.60;;
13685;SDS011;6915;48.296;8.874;2022-07-17T06:08:01;2.63;;;2.42;;
13685;SDS011;6915;48.296;8.874;2022-07-17T06:10:28;3.63;;;2.55;;
13685;SDS011;6915;48.296;8.874;2022-07-17T06:12:55;3.30;;;2.60;;
13685;SDS011;6915;48.296;8.874;2022-07-17T06:15:24;4.50;;;2.60;;
13685;SDS011;6915;48.296;8.874;2022-07-17T06:17:51;2.80;;;2.60;;
13685;SDS011;6915;48.296;8.874;2022-07-17T06:20:18;3.53;;;2.70;;
13685;SDS011;6915;48.296;8.874;2022-07-17T06:22:45;2.50;;;2.30;;
13685;SDS011;6915;48.296;8.874;2022-07-17T06:25:12;3.13;;;2.78;;
13685;SDS011;6915;48.296;8.874;2022-07-17T06:27:39;4.40;;;2.63;;
13685;SDS011;6915;48.296;8.874;2022-07-17T06:30:07;3.28;;;2.80;;
13685;SDS011;6915;48.296;8.874;2022-07-17T06:32:36;4.07;;;3.08;;
13685;SDS011;6915;48.296;8.874;2022-07-17T06:35:04;3.63;;;3.33;;
13685;SDS011;6915;48.296;8.874;2022-07-17T06:37:31;3.40;;;3.10;;
13685;SDS011;6915;48.296;8.874;2022-07-17T06:39:58;6.70;;;3.67;;
13685;SDS011;6915;48.296;8.874;2022-07-17T06:42:25;7.38;;;5.10;;
13685;SDS011;6915;48.296;8.874;2022-07-17T06:44:52;6.20;;;4.45;;
13685;SDS011;6915;48.296;8.874;2022-07-17T06:47:19;5.03;;;4.38;;
13685;SDS011;6915;48.296;8.874;2022-07-17T06:49:48;3.42;;;2.88;;
13685;SDS011;6915;48.296;8.874;2022-07-17T06:52:15;3.22;;;2.97;;
13685;SDS011;6915;48.296;8.874;2022-07-17T06:54:41;4.93;;;2.90;;
13685;SDS011;6915;48.296;8.874;2022-07-17T06:57:08;4.88;;;2.67;;
13685;SDS011;6915;48.296;8.874;2022-07-17T06:59:35;5.18;;;2.70;;
13685;SDS011;6915;48.296;8.874;2022-07-17T07:02:02;3.00;;;2.60;;
13685;SDS011;6915;48.296;8.874;2022-07-17T07:04:29;5.93;;;2.72;;
13685;SDS011;6915;48.296;8.874;2022-07-17T07:06:58;3.25;;;3.00;;
13685;SDS011;6915;48.296;8.874;2022-07-17T07:09:25;3.83;;;2.88;;
13685;SDS011;6915;48.296;8.874;2022-07-17T07:11:52;2.78;;;2.58;;
13685;SDS011;6915;48.296;8.874;2022-07-17T07:14:19;3.35;;;2.58;;
13685;SDS011;6915;48.296;8.874;2022-07-17T07:16:46;2.83;;;2.60;;
13685;SDS011;6915;48.296;8.874;2022-07-17T07:19:13;2.80;;;2.60;;
13685;SDS011;6915;48.296;8.874;2022-07-17T07:21:40;3.10;;;2.65;;
13685;SDS011;6915;48.296;8.874;2022-07-17T07:24:08;2.80;;;2.50;;
13685;SDS011;6915;48.296;8.874;2022-07-17T07:26:35;2.95;;;2.60;;
13685;SDS011;6915;48.296;8.874;2022-07-17T07:29:02;4.50;;;2.63;;
13685;SDS011;6915;48.296;8.874;2022-07-17T07:31:29;3.08;;;2.60;;
13685;SDS011;6915;48.296;8.874;2022-07-17T07:33:56;2.78;;;2.58;;
13685;SDS011;6915;48.296;8.874;2022-07-17T07:36:23;6.43;;;2.72;;
13685;SDS011;6915;48.296;8.874;2022-07-17T07:38:50;3.83;;;2.70;;
13685;SDS011;6915;48.296;8.874;2022-07-17T07:41:18;3.45;;;2.60;;
13685;SDS011;6915;48.296;8.874;2022-07-17T07:43:45;3.33;;;2.50;;
13685;SDS011;6915;48.296;8.874;2022-07-17T07:46:12;2.97;;;2.47;;
13685;SDS011;6915;48.296;8.874;2022-07-17T07:48:39;3.03;;;2.70;;
13685;SDS011;6915;48.296;8.874;2022-07-17T07:51:06;2.83;;;2.47;;
13685;SDS011;6915;48.296;8.874;2022-07-17T07:53:33;2.78;;;2.58;;
13685;SDS011;6915;48.296;8.874;2022-07-17T07:56:00;5.18;;;2.50;;
13685;SDS011;6915;48.296;8.874;2022-07-17T07:58:29;3.13;;;2.60;;
13685;SDS011;6915;48.296;8.874;2022-07-17T08:00:55;2.50;;;2.30;;
13685;SDS011;6915;48.296;8.874;2022-07-17T08:03:22;3.33;;;2.30;;
13685;SDS011;6915;48.296;8.874;2022-07-17T08:05:49;2.70;;;2.50;;
13685;SDS011;6915;48.296;8.874;2022-07-17T08:08:16;3.78;;;2.58;;
13685;SDS011;6915;48.296;8.874;2022-07-17T08:10:43;2.25;;;2.03;;
13685;SDS011;6915;48.296;8.874;2022-07-17T08:13:10;2.28;;;2.08;;
13685;SDS011;6915;48.296;8.874;2022-07-17T08:15:38;2.72;;;2.53;;
13685;SDS011;6915;48.296;8.874;2022-07-17T08:18:05;2.55;;;2.35;;
13685;SDS011;6915;48.296;8.874;2022-07-17T08:20:32;2.58;;;2.38;;
13685;SDS011;6915;48.296;8.874;2022-07-17T08:22:59;3.45;;;2.42;;
13685;SDS011;6915;48.296;8.874;2022-07-17T08:25:26;3.50;;;2.50;;
13685;SDS011;6915;48.296;8.874;2022-07-17T08:27:53;2.80;;;2.50;;
13685;SDS011;6915;48.296;8.874;2022-07-17T08:30:20;3.55;;;2.28;;
13685;SDS011;6915;48.296;8.874;2022-07-17T08:32:49;2.80;;;2.58;;
13685;SDS011;6915;48.296;8.874;2022-07-17T08:35:16;2.90;;;2.20;;
13685;SDS011;6915;48.296;8.874;2022-07-17T08:37:43;2.55;;;2.33;;
13685;SDS011;6915;48.296;8.874;2022-07-17T08:40:15;2.95;;;2.42;;
13685;SDS011;6915;48.296;8.874;2022-07-17T08:42:43;2.50;;;2.30;;
13685;SDS011;6915;48.296;8.874;2022-07-17T08:45:10;2.95;;;2.40;;
13685;SDS011;6915;48.296;8.874;2022-07-17T08:47:37;3.92;;;2.10;;
13685;SDS011;6915;48.296;8.874;2022-07-17T08:50:06;2.20;;;2.10;;
13685;SDS011;6915;48.296;8.874;2022-07-17T08:52:35;3.72;;;2.33;;
13685;SDS011;6915;48.296;8.874;2022-07-17T08:55:04;2.28;;;2.08;;
13685;SDS011;6915;48.296;8.874;2022-07-17T08:57:36;2.60;;;2.15;;
13685;SDS011;6915;48.296;8.874;2022-07-17T09:00:04;3.92;;;2.30;;
13685;SDS011;6915;48.296;8.874;2022-07-17T09:02:32;4.30;;;2.33;;
13685;SDS011;6915;48.296;8.874;2022-07-17T09:05:00;2.75;;;2.10;;
13685;SDS011;6915;48.296;8.874;2022-07-17T09:07:29;3.85;;;2.13;;
13685;SDS011;6915;48.296;8.874;2022-07-17T09:09:57;2.13;;;1.98;;
13685;SDS011;6915;48.296;8.874;2022-07-17T09:12:24;2.28;;;2.00;;
13685;SDS011;6915;48.296;8.874;2022-07-17T09:14:53;2.20;;;1.92;;
13685;SDS011;6915;48.296;8.874;2022-07-17T09:17:20;2.60;;;1.85;;
13685;SDS011;6915;48.296;8.874;2022-07-17T09:19:50;3.88;;;2.38;;
13685;SDS011;6915;48.296;8.874;2022-07-17T09:22:18;2.53;;;2.22;;
13685;SDS011;6915;48.296;8.874;2022-07-17T09:24:49;3.47;;;1.80;;
13685;SDS011;6915;48.296;8.874;2022-07-17T09:27:28;2.17;;;1.90;;
13685;SDS011;6915;48.296;8.874;2022-07-17T09:29:59;2.45;;;1.70;;
13685;SDS011;6915;48.296;8.874;2022-07-17T09:32:28;2.30;;;1.83;;
13685;SDS011;6915;48.296;8.874;2022-07-17T09:34:57;2.97;;;2.08;;
13685;SDS011;6915;48.296;8.874;2022-07-17T09:37:25;3.28;;;2.00;;
13685;SDS011;6915;48.296;8.874;2022-07-17T09:39:55;1.88;;;1.65;;
13685;SDS011;6915;48.296;8.874;2022-07-17T09:42:23;4.60;;;2.13;;
13685;SDS011;6915;48.296;8.874;2022-07-17T09:44:59;2.83;;;1.90;;
13685;SDS011;6915;48.296;8.874;2022-07-17T09:47:28;2.10;;;1.90;;
13685;SDS011;6915;48.296;8.874;2022-07-17T09:49:56;2.35;;;2.08;;
13685;SDS011;6915;48.296;8.874;2022-07-17T09:52:25;4.70;;;1.98;;
13685;SDS011;6915;48.296;8.874;2022-07-17T09:54:56;2.05;;;1.85;;
13685;SDS011;6915;48.296;8.874;2022-07-17T09:57:24;2.45;;;1.92;;
13685;SDS011;6915;48.296;8.874;2022-07-17T09:59:53;2.40;;;2.00;;
13685;SDS011;6915;48.296;8.874;2022-07-17T10:02:21;2.35;;;1.77;;
13685;SDS011;6915;48.296;8.874;2022-07-17T10:04:50;3.35;;;1.77;;
13685;SDS011;6915;48.296;8.874;2022-07-17T10:07:17;2.38;;;1.90;;
13685;SDS011;6915;48.296;8.874;2022-07-17T10:09:45;3.03;;;1.90;;
13685;SDS011;6915;48.296;8.874;2022-07-17T10:12:14;2.50;;;1.90;;
13685;SDS011;6915;48.296;8.874;2022-07-17T10:14:42;3.22;;;1.95;;
13685;SDS011;6915;48.296;8.874;2022-07-17T10:17:13;2.50;;;1.80;;
13685;SDS011;6915;48.296;8.874;2022-07-17T10:19:46;2.92;;;1.95;;
13685;SDS011;6915;48.296;8.874;2022-07-17T10:22:15;3.33;;;1.85;;
13685;SDS011;6915;48.296;8.874;2022-07-17T10:24:46;3.30;;;1.85;;
13685;SDS011;6915;48.296;8.874;2022-07-17T10:27:19;3.22;;;2.03;;
13685;SDS011;6915;48.296;8.874;2022-07-17T10:29:47;1.90;;;1.80;;
13685;SDS011;6915;48.296;8.874;2022-07-17T10:32:25;1.98;;;1.88;;
13685;SDS011;6915;48.296;8.874;2022-07-17T10:34:53;2.45;;;1.85;;
13685;SDS011;6915;48.296;8.874;2022-07-17T10:37:25;2.10;;;1.90;;
13685;SDS011;6915;48.296;8.874;2022-07-17T10:40:00;2.67;;;2.10;;
13685;SDS011;6915;48.296;8.874;2022-07-17T10:42:41;1.77;;;1.67;;
13685;SDS011;6915;48.296;8.874;2022-07-17T10:45:13;3.03;;;1.77;;
13685;SDS011;6915;48.296;8.874;2022-07-17T10:47:43;2.60;;;2.00;;
13685;SDS011;6915;48.296;8.874;2022-07-17T10:50:11;2.25;;;1.80;;
13685;SDS011;6915;48.296;8.874;2022-07-17T10:52:39;2.38;;;2.00;;
13685;SDS011;6915;48.296;8.874;2022-07-17T10:55:16;2.13;;;1.92;;
13685;SDS011;6915;48.296;8.874;2022-07-17T10:57:46;1.88;;;1.77;;
13685;SDS011;6915;48.296;8.874;2022-07-17T11:00:13;2.13;;;1.92;;
13685;SDS011;6915;48.296;8.874;2022-07-17T11:02:41;1.95;;;1.77;;
13685;SDS011;6915;48.296;8.874;2022-07-17T11:05:09;2.30;;;2.10;;
13685;SDS011;6915;48.296;8.874;2022-07-17T11:07:47;3.25;;;1.77;;
13685;SDS011;6915;48.296;8.874;2022-07-17T11:10:16;4.00;;;2.00;;
13685;SDS011;6915;48.296;8.874;2022-07-17T11:12:43;2.50;;;2.20;;
13685;SDS011;6915;48.296;8.874;2022-07-17T11:15:12;3.33;;;1.90;;
13685;SDS011;6915;48.296;8.874;2022-07-17T11:17:43;2.25;;;1.98;;
13685;SDS011;6915;48.296;8.874;2022-07-17T11:20:11;2.78;;;2.00;;
13685;SDS011;6915;48.296;8.874;2022-07-17T11:22:38;1.77;;;1.60;;
13685;SDS011;6915;48.296;8.874;2022-07-17T11:25:06;2.65;;;1.70;;
13685;SDS011;6915;48.296;8.874;2022-07-17T11:27:35;2.50;;;1.95;;
13685;SDS011;6915;48.296;8.874;2022-07-17T11:30:04;2.28;;;1.73;;
13685;SDS011;6915;48.296;8.874;2022-07-17T11:32:38;3.25;;;1.83;;
13685;SDS011;6915;48.296;8.874;2022-07-17T11:35:13;3.38;;;1.98;;
13685;SDS011;6915;48.296;8.874;2022-07-17T11:37:41;2.65;;;1.80;;
13685;SDS011;6915;48.296;8.874;2022-07-17T11:40:08;2.33;;;1.98;;
13685;SDS011;6915;48.296;8.874;2022-07-17T11:42:36;2.00;;;1.85;;
13685;SDS011;6915;48.296;8.874;2022-07-17T11:45:03;2.33;;;2.03;;
13685;SDS011;6915;48.296;8.874;2022-07-17T11:47:30;2.95;;;2.03;;
13685;SDS011;6915;48.296;8.874;2022-07-17T11:50:06;3.83;;;1.88;;
13685;SDS011;6915;48.296;8.874;2022-07-17T11:52:41;2.20;;;2.00;;
13685;SDS011;6915;48.296;8.874;2022-07-17T11:55:10;3.78;;;2.13;;
13685;SDS011;6915;48.296;8.874;2022-07-17T11:57:42;2.20;;;2.00;;
13685;SDS011;6915;48.296;8.874;2022-07-17T12:00:11;2.53;;;1.90;;
13685;SDS011;6915;48.296;8.874;2022-07-17T12:02:39;3.15;;;1.92;;
13685;SDS011;6915;48.296;8.874;2022-07-17T12:05:07;3.13;;;2.00;;
13685;SDS011;6915;48.296;8.874;2022-07-17T12:07:39;1.98;;;1.88;;
13685;SDS011;6915;48.296;8.874;2022-07-17T12:10:12;2.83;;;1.90;;
13685;SDS011;6915;48.296;8.874;2022-07-17T12:12:50;1.70;;;1.60;;
13685;SDS011;6915;48.296;8.874;2022-07-17T12:15:32;2.95;;;1.98;;
13685;SDS011;6915;48.296;8.874;2022-07-17T12:18:01;1.80;;;1.60;;
13685;SDS011;6915;48.296;8.874;2022-07-17T12:20:40;2.25;;;1.80;;
13685;SDS011;6915;48.296;8.874;2022-07-17T12:23:09;2.15;;;1.77;;
13685;SDS011;6915;48.296;8.874;2022-07-17T12:25:51;2.15;;;1.95;;
13685;SDS011;6915;48.296;8.874;2022-07-17T12:28:28;2.00;;;1.90;;
13685;SDS011;6915;48.296;8.874;2022-07-17T12:30:55;1.85;;;1.70;;
13685;SDS011;6915;48.296;8.874;2022-07-17T12:33:22;1.95;;;1.63;;
13685;SDS011;6915;48.296;8.874;2022-07-17T12:35:50;2.38;;;1.83;;
13685;SDS011;6915;48.296;8.874;2022-07-17T12:38:17;1.90;;;1.80;;
13685;SDS011;6915;48.296;8.874;2022-07-17T12:40:44;1.90;;;1.77;;
13685;SDS011;6915;48.296;8.874;2022-07-17T12:43:11;2.42;;;2.03;;
13685;SDS011;6915;48.296;8.874;2022-07-17T12:45:38;2.20;;;2.00;;
13685;SDS011;6915;48.296;8.874;2022-07-17T12:48:05;7.93;;;2.00;;
13685;SDS011;6915;48.296;8.874;2022-07-17T12:50:32;3.60;;;1.70;;
13685;SDS011;6915;48.296;8.874;2022-07-17T12:53:01;2.13;;;1.92;;
13685;SDS011;6915;48.296;8.874;2022-07-17T12:55:28;2.50;;;1.90;;
13685;SDS011;6915;48.296;8.874;2022-07-17T12:57:55;1.98;;;1.88;;
13685;SDS011;6915;48.296;8.874;2022-07-17T13:00:22;4.07;;;2.00;;
13685;SDS011;6915;48.296;8.874;2022-07-17T13:02:49;3.95;;;1.98;;
13685;SDS011;6915;48.296;8.874;2022-07-17T13:05:16;2.00;;;1.80;;
13685;SDS011;6915;48.296;8.874;2022-07-17T13:07:43;1.90;;;1.80;;
13685;SDS011;6915;48.296;8.874;2022-07-17T13:10:11;1.92;;;1.83;;
13685;SDS011;6915;48.296;8.874;2022-07-17T13:12:38;2.10;;;2.00;;
13685;SDS011;6915;48.296;8.874;2022-07-17T13:15:05;1.88;;;1.77;;
13685;SDS011;6915;48.296;8.874;2022-07-17T13:17:33;2.75;;;1.85;;
13685;SDS011;6915;48.296;8.874;2022-07-17T13:20:01;2.25;;;1.83;;
13685;SDS011;6915;48.296;8.874;2022-07-17T13:22:29;4.03;;;1.80;;
13685;SDS011;6915;48.296;8.874;2022-07-17T13:24:56;1.95;;;1.85;;
13685;SDS011;6915;48.296;8.874;2022-07-17T13:27:24;2.95;;;2.00;;
13685;SDS011;6915;48.296;8.874;2022-07-17T13:29:51;3.28;;;2.13;;
13685;SDS011;6915;48.296;8.874;2022-07-17T13:32:18;2.17;;;2.03;;
13685;SDS011;6915;48.296;8.874;2022-07-17T13:34:45;2.00;;;1.90;;
13685;SDS011;6915;48.296;8.874;2022-07-17T13:37:14;1.95;;;1.77;;
13685;SDS011;6915;48.296;8.874;2022-07-17T13:39:40;2.08;;;1.88;;
13685;SDS011;6915;48.296;8.874;2022-07-17T13:42:07;5.70;;;1.70;;
13685;SDS011;6915;48.296;8.874;2022-07-17T13:44:36;3.05;;;1.88;;
13685;SDS011;6915;48.296;8.874;2022-07-17T13:47:03;2.75;;;1.60;;
13685;SDS011;6915;48.296;8.874;2022-07-17T13:49:30;2.63;;;1.88;;
13685;SDS011;6915;48.296;8.874;2022-07-17T13:51:57;1.98;;;1.77;;
13685;SDS011;6915;48.296;8.874;2022-07-17T13:54:23;2.38;;;2.17;;
13685;SDS011;6915;48.296;8.874;2022-07-17T13:56:50;2.70;;;1.92;;
13685;SDS011;6915;48.296;8.874;2022-07-17T13:59:18;2.88;;;1.85;;
13685;SDS011;6915;48.296;8.874;2022-07-17T14:01:46;1.75;;;1.65;;
13685;SDS011;6915;48.296;8.874;2022-07-17T14:04:13;2.03;;;1.90;;
13685;SDS011;6915;48.296;8.874;2022-07-17T14:06:40;3.10;;;1.95;;
13685;SDS011;6915;48.296;8.874;2022-07-17T14:09:07;2.20;;;2.00;;
13685;SDS011;6915;48.296;8.874;2022-07-17T14:11:34;2.13;;;2.03;;
13685;SDS011;6915;48.296;8.874;2022-07-17T14:14:01;2.33;;;1.80;;
13685;SDS011;6915;48.296;8.874;2022-07-17T14:16:29;2.25;;;1.92;;
13685;SDS011;6915;48.296;8.874;2022-07-17T14:18:58;2.42;;;1.60;;
13685;SDS011;6915;48.296;8.874;2022-07-17T14:21:26;1.70;;;1.60;;
13685;SDS011;6915;48.296;8.874;2022-07-17T14:23:53;2.35;;;1.80;;
13685;SDS011;6915;48.296;8.874;2022-07-17T14:26:20;2.00;;;1.80;;
13685;SDS011;6915;48.296;8.874;2022-07-17T14:28:47;2.50;;;1.80;;
13685;SDS011;6915;48.296;8.874;2022-07-17T14:31:14;2.08;;;1.98;;
13685;SDS011;6915;48.296;8.874;2022-07-17T14:33:41;2.38;;;1.90;;
13685;SDS011;6915;48.296;8.874;2022-07-17T14:36:09;1.83;;;1.63;;
13685;SDS011;6915;48.296;8.874;2022-07-17T14:38:37;2.63;;;1.88;;
13685;SDS011;6915;48.296;8.874;2022-07-17T14:41:04;1.95;;;1.83;;
13685;SDS011;6915;48.296;8.874;2022-07-17T14:43:31;3.70;;;1.73;;
13685;SDS011;6915;48.296;8.874;2022-07-17T14:45:58;1.65;;;1.55;;
13685;SDS011;6915;48.296;8.874;2022-07-17T14:48:25;1.50;;;1.40;;
13685;SDS011;6915;48.296;8.874;2022-07-17T14:50:52;3.33;;;1.70;;
13685;SDS011;6915;48.296;8.874;2022-07-17T14:53:21;1.88;;;1.50;;
13685;SDS011;6915;48.296;8.874;2022-07-17T14:55:48;2.17;;;1.77;;
13685;SDS011;6915;48.296;8.874;2022-07-17T14:58:15;1.90;;;1.80;;
13685;SDS011;6915;48.296;8.874;2022-07-17T15:00:42;1.70;;;1.60;;
13685;SDS011;6915;48.296;8.874;2022-07-17T15:03:09;3.25;;;1.83;;
13685;SDS011;6915;48.296;8.874;2022-07-17T15:05:36;1.65;;;1.55;;